Time;durP1;ratioP1;P1;durP2;ratioP2;P2;SDS_P1;SDS_P2;PMS_P1;PMS_P2;Temp;Humidity;BMP_temperature;BMP_pressure;BME280_temperature;BME280_humidity;BME280_pressure;Samples;Min_cycle;Max_cycle;Signal;HPM_P1;HPM_P2
2021/09/19 00:05:16;;;;;;;4.53;4.05;;;13.90;99.90;;;;;;6164987;23;20173;-81
2021/09/19 00:07:49;;;;;;;8.30;5.18;;;13.80;99.90;;;;;;6168006;23;20177;-80
2021/09/19 00:10:21;;;;;;;4.20;3.55;;;13.80;99.90;;;;;;6170602;23;20184;-81
2021/09/19 00:12:55;;;;;;;5.10;4.60;;;13.80;99.90;;;;;;6180186;23;20175;-80
2021/09/19 00:15:33;;;;;;;9.50;4.07;;;13.80;99.90;;;;;;6173998;23;20200;-82
2021/09/19 00:18:04;;;;;;;5.53;4.90;;;13.80;99.90;;;;;;6170066;23;20180;-84
2021/09/19 00:20:32;;;;;;;4.85;3.72;;;13.80;99.90;;;;;;6168181;23;20177;-83
2021/09/19 00:22:59;;;;;;;5.68;4.20;;;13.90;99.90;;;;;;6168974;23;20481;-82
2021/09/19 00:25:26;;;;;;;5.15;4.03;;;13.90;99.90;;;;;;6169182;23;20200;-83
2021/09/19 00:27:53;;;;;;;5.28;4.07;;;13.90;99.90;;;;;;6170042;23;20195;-83
2021/09/19 00:30:21;;;;;;;7.72;5.05;;;14.00;99.90;;;;;;6174916;23;20181;-82
2021/09/19 00:32:49;;;;;;;6.70;4.40;;;14.10;99.90;;;;;;6169546;23;20236;-82
2021/09/19 00:35:16;;;;;;;4.78;3.92;;;14.10;99.90;;;;;;6170270;23;20201;-83
2021/09/19 00:37:44;;;;;;;5.70;4.65;;;14.10;99.90;;;;;;6168034;23;20187;-81
2021/09/19 00:40:12;;;;;;;4.43;3.85;;;14.10;99.90;;;;;;6165783;23;20668;-82
2021/09/19 00:42:40;;;;;;;4.45;3.80;;;14.10;99.90;;;;;;6166856;23;20176;-82
2021/09/19 00:45:10;;;;;;;5.88;4.30;;;14.00;99.90;;;;;;6168273;23;20213;-82
2021/09/19 00:47:37;;;;;;;8.48;4.60;;;14.00;99.90;;;;;;6166438;23;20639;-83
2021/09/19 00:50:08;;;;;;;10.48;5.32;;;14.00;99.90;;;;;;6166391;23;20181;-83
2021/09/19 00:52:37;;;;;;;5.00;4.50;;;14.00;99.90;;;;;;6166913;23;20249;-82
2021/09/19 00:55:05;;;;;;;6.05;4.78;;;14.00;99.90;;;;;;6167211;23;20552;-81
2021/09/19 00:57:38;;;;;;;5.55;4.68;;;14.00;99.90;;;;;;6174584;23;20156;-80
2021/09/19 01:00:07;;;;;;;4.57;4.18;;;14.00;99.90;;;;;;6175880;23;20276;-83
2021/09/19 01:02:35;;;;;;;6.07;3.60;;;14.00;99.90;;;;;;6166708;23;20527;-82
2021/09/19 01:05:02;;;;;;;5.47;4.00;;;14.00;99.90;;;;;;6165317;23;20173;-81
2021/09/19 01:07:31;;;;;;;6.28;4.18;;;14.10;99.90;;;;;;6173156;23;20190;-81
2021/09/19 01:10:00;;;;;;;6.32;3.80;;;14.10;99.90;;;;;;6166817;23;20191;-84
2021/09/19 01:12:28;;;;;;;9.00;4.90;;;14.10;99.90;;;;;;6167397;23;20204;-83
2021/09/19 01:14:59;;;;;;;5.55;3.78;;;14.00;99.90;;;;;;6166829;23;20197;-82
2021/09/19 01:17:26;;;;;;;6.05;4.80;;;14.00;99.90;;;;;;6169680;23;20191;-84
2021/09/19 01:19:57;;;;;;;3.70;3.30;;;14.00;99.90;;;;;;6169181;23;20287;-82
2021/09/19 01:22:32;;;;;;;7.72;4.20;;;14.10;99.90;;;;;;6167911;23;20165;-81
2021/09/19 01:25:02;;;;;;;8.60;4.50;;;14.10;99.90;;;;;;6168933;23;20169;-82
2021/09/19 01:27:29;;;;;;;7.82;4.60;;;14.10;99.90;;;;;;6168299;23;20177;-82
2021/09/19 01:29:56;;;;;;;7.75;4.50;;;14.10;99.90;;;;;;6169307;23;20184;-82
2021/09/19 01:32:23;;;;;;;5.05;4.45;;;14.10;99.90;;;;;;6167018;23;20232;-84
2021/09/19 01:34:50;;;;;;;4.55;4.15;;;13.90;99.90;;;;;;6165871;23;20196;-81
2021/09/19 01:37:18;;;;;;;7.05;3.80;;;14.10;99.90;;;;;;6167016;23;20252;-83
2021/09/19 01:39:46;;;;;;;7.85;4.82;;;14.10;99.90;;;;;;6166488;23;20188;-81
2021/09/19 01:42:14;;;;;;;8.07;4.75;;;14.10;99.90;;;;;;6162611;23;20628;-82
2021/09/19 01:44:42;;;;;;;6.57;5.10;;;14.10;99.90;;;;;;6165854;23;20169;-82
2021/09/19 01:47:09;;;;;;;9.48;4.70;;;14.20;99.90;;;;;;6172737;23;20552;-82
2021/09/19 01:49:36;;;;;;;6.55;5.53;;;14.10;99.90;;;;;;6170271;23;20177;-83
2021/09/19 01:52:04;;;;;;;8.35;4.65;;;14.10;99.90;;;;;;6164674;23;20180;-82
2021/09/19 01:54:31;;;;;;;8.25;5.28;;;14.00;99.90;;;;;;6168357;23;20188;-81
2021/09/19 01:56:58;;;;;;;8.10;6.13;;;14.00;99.90;;;;;;6167345;23;20272;-82
2021/09/19 01:59:26;;;;;;;10.80;4.80;;;14.00;99.90;;;;;;6167124;23;20199;-81
2021/09/19 02:01:53;;;;;;;4.90;4.20;;;13.90;99.90;;;;;;6166187;23;20181;-82
2021/09/19 02:04:20;;;;;;;7.88;4.50;;;14.00;99.90;;;;;;6167239;23;20176;-83
2021/09/19 02:06:48;;;;;;;7.60;4.65;;;13.90;99.90;;;;;;6164733;23;20267;-81
2021/09/19 02:09:15;;;;;;;7.72;4.85;;;13.90;99.90;;;;;;6162080;23;20187;-83
2021/09/19 02:11:42;;;;;;;7.13;4.72;;;13.90;99.90;;;;;;6162343;23;20280;-81
2021/09/19 02:14:09;;;;;;;5.78;4.55;;;13.80;99.90;;;;;;6162155;23;20239;-81
2021/09/19 02:16:37;;;;;;;6.88;4.90;;;13.80;99.90;;;;;;6167215;23;20240;-81
2021/09/19 02:19:04;;;;;;;6.32;4.97;;;13.70;99.90;;;;;;6170152;23;20755;-82
2021/09/19 02:21:32;;;;;;;7.18;4.50;;;13.60;99.90;;;;;;6168706;23;20187;-83
2021/09/19 02:23:59;;;;;;;10.30;5.85;;;13.60;99.90;;;;;;6170503;23;20219;-83
2021/09/19 02:26:26;;;;;;;6.93;5.30;;;13.70;99.90;;;;;;6170233;23;20196;-82
2021/09/19 02:28:53;;;;;;;7.68;4.93;;;13.70;99.90;;;;;;6171122;23;20174;-83
2021/09/19 02:31:20;;;;;;;6.82;5.30;;;13.70;99.90;;;;;;6170194;23;20194;-82
2021/09/19 02:33:48;;;;;;;9.63;4.80;;;13.70;99.90;;;;;;6170286;23;20180;-83
2021/09/19 02:36:15;;;;;;;8.05;5.28;;;13.70;99.90;;;;;;6166504;23;20204;-82
2021/09/19 02:38:43;;;;;;;11.13;5.85;;;13.70;99.90;;;;;;6162403;23;20187;-80
2021/09/19 02:41:10;;;;;;;7.10;5.03;;;13.60;99.90;;;;;;6163717;23;20276;-82
2021/09/19 02:43:37;;;;;;;8.38;5.35;;;13.60;99.90;;;;;;6164463;23;20169;-82
2021/09/19 02:46:04;;;;;;;7.30;5.63;;;13.60;99.90;;;;;;6164423;23;20193;-81
2021/09/19 02:48:31;;;;;;;5.75;4.72;;;13.50;99.90;;;;;;6162666;23;20596;-83
2021/09/19 02:51:00;;;;;;;7.43;5.45;;;13.40;99.90;;;;;;6163652;23;20374;-82
2021/09/19 02:53:28;;;;;;;7.75;4.80;;;13.50;99.90;;;;;;6167168;23;20188;-82
2021/09/19 02:55:55;;;;;;;6.90;5.70;;;13.50;99.90;;;;;;6164259;23;20210;-82
2021/09/19 02:58:22;;;;;;;6.30;4.22;;;13.60;99.90;;;;;;6169459;23;20204;-80
2021/09/19 03:00:49;;;;;;;5.20;4.63;;;13.50;99.90;;;;;;6180167;23;20165;-83
2021/09/19 03:03:16;;;;;;;5.95;4.97;;;13.40;99.90;;;;;;6166844;23;20180;-82
2021/09/19 03:05:43;;;;;;;6.22;4.60;;;13.50;99.90;;;;;;6163019;23;20196;-81
2021/09/19 03:08:12;;;;;;;6.15;4.85;;;13.50;99.90;;;;;;6166671;23;20184;-82
2021/09/19 03:10:40;;;;;;;6.72;5.00;;;13.50;99.90;;;;;;6161935;23;20188;-82
2021/09/19 03:13:07;;;;;;;7.70;5.28;;;13.50;99.90;;;;;;6162644;23;20614;-82
2021/09/19 03:15:34;;;;;;;6.43;4.70;;;13.50;99.90;;;;;;6162869;23;20550;-83
2021/09/19 03:18:01;;;;;;;7.85;5.93;;;13.50;99.90;;;;;;6162562;23;20199;-83
2021/09/19 03:20:28;;;;;;;9.48;4.75;;;13.50;99.90;;;;;;6164182;23;20212;-82
2021/09/19 03:22:56;;;;;;;8.50;5.18;;;13.50;99.90;;;;;;6163562;23;20187;-83
2021/09/19 03:25:24;;;;;;;7.13;5.13;;;13.50;99.90;;;;;;6164430;23;20219;-82
2021/09/19 03:27:51;;;;;;;7.50;5.07;;;13.50;99.90;;;;;;6167246;23;20192;-83
2021/09/19 03:30:19;;;;;;;6.78;5.00;;;13.40;99.90;;;;;;6167033;23;20171;-84
2021/09/19 03:32:47;;;;;;;7.57;5.00;;;13.50;99.90;;;;;;6164639;23;20180;-84
2021/09/19 03:35:14;;;;;;;9.80;5.20;;;13.40;99.90;;;;;;6163314;23;20239;-85
2021/09/19 03:37:42;;;;;;;6.47;4.82;;;13.40;99.90;;;;;;6166286;23;20235;-82
2021/09/19 03:40:11;;;;;;;6.65;5.80;;;13.50;99.90;;;;;;6164149;23;20194;-82
2021/09/19 03:42:40;;;;;;;12.98;5.95;;;13.40;99.90;;;;;;6165362;23;20275;-82
2021/09/19 03:45:12;;;;;;;6.53;4.75;;;13.50;99.90;;;;;;6163499;23;20255;-83
2021/09/19 03:47:40;;;;;;;8.63;5.18;;;13.50;99.90;;;;;;6163194;23;20191;-81
2021/09/19 03:50:08;;;;;;;8.43;5.30;;;13.40;99.90;;;;;;6162528;23;20180;-82
2021/09/19 03:52:35;;;;;;;7.25;5.20;;;13.40;99.90;;;;;;6164819;23;20167;-83
2021/09/19 03:55:03;;;;;;;7.40;5.18;;;13.40;99.90;;;;;;6163648;23;20236;-82
2021/09/19 03:57:32;;;;;;;6.70;5.38;;;13.40;99.90;;;;;;6164180;23;20179;-81
2021/09/19 04:00:00;;;;;;;7.55;5.35;;;13.40;99.90;;;;;;6164867;23;20188;-82
2021/09/19 04:02:27;;;;;;;7.07;5.85;;;13.40;99.90;;;;;;6163136;23;20190;-82
2021/09/19 04:04:54;;;;;;;7.70;5.03;;;13.20;99.90;;;;;;6165060;23;20169;-82
2021/09/19 04:07:21;;;;;;;6.13;5.10;;;13.30;99.90;;;;;;6163438;23;20173;-84
2021/09/19 04:09:49;;;;;;;8.05;5.25;;;13.30;99.90;;;;;;6164157;23;20180;-82
2021/09/19 04:12:16;;;;;;;11.23;5.10;;;13.30;99.90;;;;;;6164901;23;20335;-82
2021/09/19 04:14:43;;;;;;;5.70;4.70;;;13.30;99.90;;;;;;6163788;23;20215;-81
2021/09/19 04:17:11;;;;;;;9.98;5.47;;;13.30;99.90;;;;;;6163241;23;20203;-82
2021/09/19 04:19:38;;;;;;;6.85;5.15;;;13.30;99.90;;;;;;6164415;23;20793;-82
2021/09/19 04:22:06;;;;;;;7.43;5.40;;;13.30;99.90;;;;;;6164429;23;20188;-82
2021/09/19 04:24:33;;;;;;;7.95;4.43;;;13.30;99.90;;;;;;6165490;23;20184;-82
2021/09/19 04:27:03;;;;;;;6.72;5.28;;;13.30;99.90;;;;;;6169959;23;20205;-81
2021/09/19 04:29:30;;;;;;;9.18;5.20;;;13.30;99.90;;;;;;6174587;23;20264;-82
2021/09/19 04:31:58;;;;;;;8.80;6.93;;;13.20;99.90;;;;;;6171700;23;20222;-82
2021/09/19 04:34:26;;;;;;;6.93;5.45;;;13.10;99.90;;;;;;6170822;23;20259;-82
2021/09/19 04:36:54;;;;;;;7.10;4.72;;;13.10;99.90;;;;;;6180964;23;20219;-80
2021/09/19 04:39:21;;;;;;;9.60;5.30;;;13.00;99.90;;;;;;6181649;23;20191;-80
2021/09/19 04:41:48;;;;;;;7.35;5.28;;;13.00;99.90;;;;;;6182114;23;20177;-81
2021/09/19 04:44:15;;;;;;;7.93;5.55;;;13.10;99.90;;;;;;6176523;23;20199;-82
2021/09/19 04:46:43;;;;;;;7.28;5.50;;;13.10;99.90;;;;;;6167585;23;20200;-81
2021/09/19 04:49:10;;;;;;;8.02;5.55;;;13.10;99.90;;;;;;6166765;23;20188;-82
2021/09/19 04:51:42;;;;;;;8.52;6.20;;;13.20;99.90;;;;;;6166389;23;20161;-82
2021/09/19 04:54:09;;;;;;;6.72;5.43;;;13.20;99.90;;;;;;6167328;23;20173;-82
2021/09/19 04:56:36;;;;;;;10.63;5.13;;;13.20;99.90;;;;;;6167402;23;20726;-81
2021/09/19 04:59:04;;;;;;;6.90;4.82;;;13.20;99.90;;;;;;6173551;23;20166;-80
2021/09/19 05:01:32;;;;;;;6.28;5.18;;;13.20;99.90;;;;;;6181153;23;20212;-81
2021/09/19 05:03:59;;;;;;;6.80;5.45;;;13.20;99.90;;;;;;6170246;23;20314;-82
2021/09/19 05:06:26;;;;;;;8.00;5.00;;;13.20;99.90;;;;;;6175609;23;20209;-81
2021/09/19 05:08:56;;;;;;;8.07;5.25;;;13.10;99.90;;;;;;6177185;23;20187;-82
2021/09/19 05:11:24;;;;;;;8.77;5.30;;;13.10;99.90;;;;;;6170383;23;20588;-81
2021/09/19 05:13:53;;;;;;;8.80;5.75;;;13.00;99.90;;;;;;6171199;23;20195;-80
2021/09/19 05:16:20;;;;;;;8.50;5.47;;;12.90;99.90;;;;;;6174209;23;20194;-79
2021/09/19 05:18:47;;;;;;;10.40;5.43;;;12.90;99.90;;;;;;6184656;23;20158;-78
2021/09/19 05:21:15;;;;;;;5.68;5.00;;;12.90;99.90;;;;;;6184249;23;20219;-81
2021/09/19 05:23:42;;;;;;;7.03;5.43;;;12.80;99.90;;;;;;6184782;23;20216;-80
2021/09/19 05:26:11;;;;;;;6.88;4.80;;;12.80;99.90;;;;;;6183661;23;20183;-79
2021/09/19 05:28:38;;;;;;;9.80;6.05;;;12.80;99.90;;;;;;6183658;23;20219;-79
2021/09/19 05:31:05;;;;;;;5.47;4.40;;;12.80;99.90;;;;;;6182300;23;20226;-80
2021/09/19 05:33:32;;;;;;;12.20;5.32;;;12.80;99.90;;;;;;6177148;23;20191;-80
2021/09/19 05:35:59;;;;;;;8.10;5.40;;;12.90;99.90;;;;;;6166277;23;20203;-80
2021/09/19 05:38:26;;;;;;;8.05;5.50;;;12.90;99.90;;;;;;6168986;23;20175;-81
2021/09/19 05:40:53;;;;;;;7.15;4.63;;;12.90;99.90;;;;;;6165973;23;20190;-81
2021/09/19 05:43:22;;;;;;;5.30;4.65;;;12.80;99.90;;;;;;6169636;23;20181;-83
2021/09/19 05:45:49;;;;;;;8.80;5.05;;;12.80;99.90;;;;;;6169425;23;20199;-83
2021/09/19 05:48:21;;;;;;;7.60;5.50;;;12.80;99.90;;;;;;6170916;23;20278;-83
2021/09/19 05:50:48;;;;;;;8.13;5.40;;;12.90;99.90;;;;;;6169328;23;20175;-85
2021/09/19 05:53:15;;;;;;;8.55;5.53;;;12.90;99.90;;;;;;6170040;23;20206;-84
2021/09/19 05:55:42;;;;;;;11.10;5.10;;;12.90;99.90;;;;;;6170096;23;20174;-85
2021/09/19 05:58:10;;;;;;;7.25;5.20;;;12.90;99.90;;;;;;6169718;23;20183;-86
2021/09/19 06:00:39;;;;;;;6.35;5.20;;;12.90;99.90;;;;;;6173259;23;20181;-83
2021/09/19 06:03:13;;;;;;;6.80;4.10;;;12.90;99.90;;;;;;6172058;23;20176;-86
2021/09/19 06:05:50;;;;;;;7.07;4.93;;;13.00;99.90;;;;;;6171115;23;20235;-83
2021/09/19 06:08:19;;;;;;;9.57;4.78;;;13.00;99.90;;;;;;6170263;23;20752;-83
2021/09/19 06:10:55;;;;;;;7.25;5.25;;;13.00;99.90;;;;;;6172115;23;20159;-84
2021/09/19 06:48:20;;;;;;;6.75;5.47;;;13.40;99.90;;;;;;5993404;23;20195;-84
2021/09/19 06:50:49;;;;;;;6.53;4.75;;;13.40;99.90;;;;;;6052408;23;20636;-83
2021/09/19 06:53:24;;;;;;;6.60;4.93;;;13.50;99.90;;;;;;6108881;23;20185;-83
2021/09/19 06:55:52;;;;;;;8.10;4.45;;;13.50;99.90;;;;;;6120684;23;20260;-83
2021/09/19 07:08:33;;;;;;;10.30;5.53;;;13.70;99.90;;;;;;5834624;24;20214;-83
2021/09/19 07:11:42;;;;;;;7.03;5.40;;;13.80;99.90;;;;;;5857439;24;20188;-85
2021/09/19 07:14:34;;;;;;;8.23;4.80;;;13.90;99.90;;;;;;5972720;24;20219;-85
2021/09/19 07:17:01;;;;;;;6.32;4.30;;;13.90;99.90;;;;;;5997351;24;20205;-84
2021/09/19 07:19:28;;;;;;;9.93;5.97;;;14.00;99.90;;;;;;6103429;23;20189;-83
2021/09/19 07:21:56;;;;;;;7.28;5.60;;;14.00;99.90;;;;;;6149360;23;20165;-81
2021/09/19 07:24:24;;;;;;;6.22;5.63;;;14.00;99.90;;;;;;6149306;23;20181;-81
2021/09/19 07:26:51;;;;;;;9.63;5.28;;;14.00;99.90;;;;;;6147881;23;20237;-83
2021/09/19 07:29:19;;;;;;;8.07;5.18;;;14.10;99.90;;;;;;6148925;23;20257;-82
2021/09/19 07:31:50;;;;;;;13.82;4.85;;;14.20;99.90;;;;;;6146166;23;20182;-84
2021/09/19 07:34:18;;;;;;;4.68;4.13;;;14.20;99.90;;;;;;6143162;23;20600;-84
2021/09/19 07:36:48;;;;;;;8.45;5.00;;;14.30;99.90;;;;;;6143078;23;20225;-84
2021/09/19 07:39:15;;;;;;;6.35;5.43;;;14.40;99.90;;;;;;6143353;23;20154;-83
2021/09/19 07:41:45;;;;;;;5.57;4.90;;;14.50;99.90;;;;;;6143989;23;20233;-84
2021/09/19 07:44:12;;;;;;;7.68;5.43;;;14.60;99.90;;;;;;6147926;23;20187;-85
2021/09/19 07:46:40;;;;;;;5.40;4.43;;;14.70;99.90;;;;;;6152784;23;20259;-84
2021/09/19 07:49:08;;;;;;;6.75;5.00;;;14.80;99.90;;;;;;6153768;23;20181;-81
2021/09/19 07:51:36;;;;;;;7.90;4.50;;;14.80;99.90;;;;;;6143606;23;20211;-85
2021/09/19 07:54:04;;;;;;;6.00;5.07;;;14.70;99.90;;;;;;6151233;23;20170;-86
2021/09/19 07:56:31;;;;;;;5.32;4.28;;;14.70;99.90;;;;;;6152776;23;20228;-82
2021/09/19 07:59:07;;;;;;;6.38;4.32;;;14.70;99.90;;;;;;6153948;23;20165;-85
2021/09/19 08:01:41;;;;;;;6.30;4.38;;;14.80;99.90;;;;;;6154009;23;20150;-81
2021/09/19 08:04:09;;;;;;;5.30;4.60;;;14.90;99.90;;;;;;6153469;23;20159;-82
2021/09/19 11:36:03;;;;;;;;;;;;;;;;;;;;;
2021/09/19 12:17:47;;;;;;;2.58;2.20;;;17.10;97.80;;;;;;6089316;23;20222;-70
2021/09/19 12:20:14;;;;;;;4.25;2.92;;;17.20;98.20;;;;;;6186215;23;20155;-70
2021/09/19 12:22:41;;;;;;;4.30;2.78;;;17.40;98.70;;;;;;6186178;23;20204;-70
2021/09/19 12:25:09;;;;;;;3.00;2.35;;;17.60;98.00;;;;;;6185326;23;20164;-70
2021/09/19 12:27:44;;;;;;;4.10;2.60;;;17.90;97.40;;;;;;6185540;23;20638;-70
2021/09/19 12:30:14;;;;;;;3.10;2.37;;;18.10;96.80;;;;;;6185305;23;20406;-70
2021/09/19 12:32:44;;;;;;;5.20;2.10;;;18.20;95.50;;;;;;6185300;23;20922;-71
2021/09/19 12:35:14;;;;;;;2.80;2.30;;;18.10;94.80;;;;;;6184938;23;20392;-70
2021/09/19 12:37:47;;;;;;;7.30;3.20;;;18.00;94.60;;;;;;6185055;23;20791;-69
2021/09/19 12:40:16;;;;;;;4.20;2.87;;;18.00;94.60;;;;;;6185770;23;20385;-70
2021/09/19 12:42:45;;;;;;;3.17;2.33;;;18.00;94.70;;;;;;6184823;23;20980;-69
2021/09/19 12:45:15;;;;;;;3.10;2.53;;;18.00;94.80;;;;;;6183233;23;20714;-68
2021/09/19 12:47:52;;;;;;;3.73;3.10;;;18.00;94.50;;;;;;6185363;23;20396;-70
2021/09/19 12:50:21;;;;;;;3.60;2.23;;;18.00;94.90;;;;;;6184827;23;20877;-71
2021/09/19 12:52:48;;;;;;;5.03;2.73;;;17.90;94.70;;;;;;6184908;23;20441;-70
2021/09/19 12:55:18;;;;;;;2.60;2.20;;;17.90;94.90;;;;;;6184432;23;20485;-69
2021/09/19 12:57:45;;;;;;;4.30;2.90;;;17.80;95.00;;;;;;6184927;23;20446;-70
2021/09/19 13:00:14;;;;;;;3.40;2.80;;;17.70;95.20;;;;;;6185035;23;20441;-73
2021/09/19 13:02:41;;;;;;;3.20;2.87;;;17.60;95.30;;;;;;6184949;23;20471;-70
2021/09/19 13:05:09;;;;;;;6.33;2.90;;;17.60;95.40;;;;;;6183815;23;20958;-69
2021/09/19 13:07:38;;;;;;;3.23;2.63;;;17.70;95.20;;;;;;6184811;23;20452;-70
2021/09/19 13:10:07;;;;;;;4.80;3.20;;;17.90;95.10;;;;;;6185012;23;20479;-70
2021/09/19 13:12:36;;;;;;;3.00;2.70;;;18.10;95.10;;;;;;6184820;23;20877;-69
2021/09/19 13:15:05;;;;;;;3.50;2.50;;;18.40;94.90;;;;;;6183948;23;20380;-70
2021/09/19 13:17:32;;;;;;;2.93;2.43;;;18.60;94.10;;;;;;6184303;23;20566;-68
2021/09/19 13:20:00;;;;;;;6.13;3.70;;;18.40;92.70;;;;;;6184011;23;20806;-69
2021/09/19 13:22:27;;;;;;;3.43;2.57;;;18.40;93.60;;;;;;6183944;23;20748;-69
2021/09/19 13:24:56;;;;;;;4.00;2.60;;;18.20;93.30;;;;;;6184635;23;20407;-69
2021/09/19 13:27:24;;;;;;;3.93;2.87;;;18.20;93.80;;;;;;6184669;23;20474;-69
2021/09/19 13:29:51;;;;;;;4.03;2.67;;;18.10;94.10;;;;;;6184033;23;20811;-70
2021/09/19 13:32:18;;;;;;;4.60;2.93;;;17.90;94.20;;;;;;6183764;23;20432;-69
2021/09/19 13:34:47;;;;;;;3.80;3.00;;;17.70;94.50;;;;;;6184002;23;20414;-69
2021/09/19 13:37:16;;;;;;;6.73;2.77;;;17.40;94.80;;;;;;6184224;23;20466;-70
2021/09/19 13:39:45;;;;;;;4.07;3.00;;;17.30;95.20;;;;;;6184697;23;20453;-69
2021/09/19 13:42:14;;;;;;;5.40;4.10;;;17.20;95.80;;;;;;6184177;23;20204;-69
2021/09/19 13:44:42;;;;;;;3.90;3.30;;;17.10;96.30;;;;;;6184595;23;20164;-69
2021/09/19 13:47:10;;;;;;;5.90;4.22;;;17.00;96.40;;;;;;6182763;23;20246;-68
2021/09/19 13:49:40;;;;;;;6.80;3.30;;;17.20;96.70;;;;;;6182933;23;20172;-71
2021/09/19 13:52:07;;;;;;;3.27;2.43;;;17.20;96.40;;;;;;6184155;23;20466;-71
2021/09/19 13:54:34;;;;;;;4.50;3.00;;;17.30;96.00;;;;;;6184701;23;20398;-70
2021/09/19 13:57:01;;;;;;;4.37;2.30;;;17.40;95.90;;;;;;6183829;23;20423;-70
2021/09/19 13:59:31;;;;;;;4.28;2.58;;;17.50;95.60;;;;;;6184341;23;20399;-69
2021/09/19 14:01:58;;;;;;;3.63;2.60;;;17.50;95.00;;;;;;6183754;23;20238;-71
2021/09/19 14:04:26;;;;;;;5.30;3.27;;;17.50;95.20;;;;;;6184421;23;20481;-70
2021/09/19 14:06:53;;;;;;;3.90;3.17;;;17.50;95.30;;;;;;6183582;23;20400;-70
2021/09/19 14:09:20;;;;;;;4.53;3.03;;;17.50;95.80;;;;;;6185129;23;20724;-71
2021/09/19 14:11:48;;;;;;;2.93;2.60;;;17.50;95.70;;;;;;6184659;23;20428;-71
2021/09/19 14:14:16;;;;;;;3.28;2.53;;;17.50;95.70;;;;;;6183466;23;20498;-70
2021/09/19 14:16:45;;;;;;;5.13;2.90;;;17.60;95.80;;;;;;6181995;23;20662;-71
2021/09/19 14:19:12;;;;;;;3.93;2.93;;;17.60;95.00;;;;;;6185223;23;20795;-70
2021/09/19 14:21:46;;;;;;;5.07;3.37;;;17.50;95.10;;;;;;6184322;23;20435;-70
2021/09/19 14:24:13;;;;;;;4.43;2.43;;;17.50;95.30;;;;;;6184996;23;20398;-70
2021/09/19 14:26:42;;;;;;;3.20;2.50;;;17.50;95.50;;;;;;6184749;23;20405;-70
2021/09/19 14:29:09;;;;;;;5.17;2.90;;;17.60;95.80;;;;;;6184405;23;20478;-70
2021/09/19 14:31:37;;;;;;;3.70;3.07;;;17.60;95.50;;;;;;6184184;23;20468;-69
2021/09/19 14:34:05;;;;;;;6.23;3.80;;;17.60;95.40;;;;;;6184931;23;20406;-71
2021/09/19 14:36:34;;;;;;;10.87;6.73;;;17.60;95.80;;;;;;6184366;23;20458;-69
2021/09/19 14:39:03;;;;;;;4.13;3.73;;;17.60;95.50;;;;;;6184563;23;20458;-71
2021/09/19 14:41:30;;;;;;;4.30;3.30;;;17.70;95.60;;;;;;6184022;23;20771;-69
2021/09/19 14:43:57;;;;;;;4.10;3.10;;;17.60;95.00;;;;;;6184039;23;20474;-69
2021/09/19 14:46:24;;;;;;;26.63;5.00;;;17.50;95.10;;;;;;6184303;23;20392;-70
2021/09/19 14:48:52;;;;;;;4.47;3.13;;;17.60;95.40;;;;;;6184864;23;20524;-71
2021/09/19 14:51:20;;;;;;;3.27;2.63;;;17.60;95.40;;;;;;6184382;23;20402;-71
2021/09/19 14:53:48;;;;;;;3.47;3.00;;;17.70;95.10;;;;;;6184866;23;20512;-70
2021/09/19 14:56:15;;;;;;;6.32;2.75;;;17.70;94.70;;;;;;6183553;23;20856;-70
2021/09/19 14:58:42;;;;;;;4.03;2.80;;;17.50;94.30;;;;;;6184089;23;20239;-70
2021/09/19 15:01:10;;;;;;;3.80;2.47;;;17.50;94.30;;;;;;6184480;23;20399;-69
2021/09/19 15:03:37;;;;;;;3.30;2.87;;;17.40;94.30;;;;;;6184147;23;20416;-69
2021/09/19 15:06:05;;;;;;;3.90;2.90;;;17.30;94.60;;;;;;6183700;23;20464;-69
2021/09/19 15:08:34;;;;;;;5.80;2.90;;;17.20;94.40;;;;;;6184255;23;20181;-71
2021/09/19 15:11:03;;;;;;;3.57;2.63;;;17.10;94.80;;;;;;6183871;23;20391;-70
2021/09/19 15:13:30;;;;;;;4.20;2.67;;;17.10;95.30;;;;;;6184340;23;20400;-71
2021/09/19 15:15:57;;;;;;;9.57;3.10;;;17.10;95.60;;;;;;6182783;23;20444;-69
2021/09/19 15:18:24;;;;;;;5.77;3.87;;;17.10;95.90;;;;;;6184733;23;20518;-70
2021/09/19 15:20:52;;;;;;;6.68;3.00;;;17.10;96.00;;;;;;6184433;23;20489;-70
2021/09/19 15:23:19;;;;;;;4.80;3.50;;;17.10;96.30;;;;;;6184198;23;20206;-70
2021/09/19 15:25:47;;;;;;;3.72;2.60;;;17.10;96.50;;;;;;6183302;23;20395;-70
2021/09/19 15:28:14;;;;;;;5.60;2.87;;;17.10;96.60;;;;;;6183902;23;20171;-70
2021/09/19 15:30:44;;;;;;;3.53;2.30;;;17.00;96.40;;;;;;6183762;23;20486;-70
2021/09/19 15:33:12;;;;;;;9.60;6.47;;;16.90;96.70;;;;;;6184757;23;20759;-71
2021/09/19 15:35:39;;;;;;;6.28;3.90;;;16.90;97.20;;;;;;6183566;23;20168;-72
2021/09/19 15:38:07;;;;;;;9.43;3.90;;;16.90;97.60;;;;;;6183990;23;20219;-70
2021/09/19 15:40:55;;;;;;;3.63;2.73;;;16.90;98.00;;;;;;6184184;23;20411;-70
2021/09/19 15:43:25;;;;;;;5.80;2.50;;;16.90;97.60;;;;;;6183938;23;20441;-70
2021/09/19 15:45:56;;;;;;;8.27;3.17;;;16.90;97.90;;;;;;6183556;23;20475;-70
2021/09/19 15:48:25;;;;;;;5.03;3.17;;;16.80;98.20;;;;;;6182942;23;21035;-70
2021/09/19 15:50:53;;;;;;;3.95;3.25;;;16.80;98.50;;;;;;6184348;23;20399;-70
2021/09/19 15:53:28;;;;;;;3.72;3.33;;;16.80;98.70;;;;;;6184915;23;20206;-71
2021/09/19 15:55:56;;;;;;;7.93;3.73;;;16.70;98.90;;;;;;6185046;23;20174;-70
2021/09/19 15:58:33;;;;;;;3.85;2.78;;;16.80;99.20;;;;;;6184226;23;20460;-69
2021/09/19 16:01:02;;;;;;;4.53;3.37;;;16.80;99.60;;;;;;6184461;23;20189;-70
2021/09/19 16:03:59;;;;;;;4.13;3.25;;;16.90;99.90;;;;;;6184450;23;20482;-69
2021/09/19 16:06:26;;;;;;;6.22;3.85;;;16.90;99.90;;;;;;6184747;23;20202;-69
2021/09/19 16:09:02;;;;;;;4.70;2.63;;;16.90;99.90;;;;;;6183766;23;20164;-70
2021/09/19 16:11:29;;;;;;;5.57;2.97;;;16.80;99.90;;;;;;6185123;23;20282;-73
2021/09/19 16:13:59;;;;;;;3.60;2.77;;;16.90;99.90;;;;;;6183141;23;20405;-71
2021/09/19 16:16:28;;;;;;;5.47;2.90;;;16.80;99.90;;;;;;6175613;23;20454;-72
2021/09/19 16:18:59;;;;;;;6.22;3.70;;;16.80;99.90;;;;;;6182983;23;20452;-72
2021/09/19 16:21:27;;;;;;;4.38;2.85;;;16.80;99.90;;;;;;6184247;23;20201;-69
2021/09/19 16:23:59;;;;;;;3.10;2.80;;;16.70;99.90;;;;;;6183818;23;20202;-74
2021/09/19 16:26:27;;;;;;;5.22;3.47;;;16.60;99.90;;;;;;6182812;23;20171;-74
2021/09/19 16:28:54;;;;;;;5.93;3.10;;;16.70;99.90;;;;;;6183552;23;20483;-75
2021/09/19 16:31:23;;;;;;;3.55;2.80;;;16.60;99.90;;;;;;6184407;23;20206;-75
2021/09/19 16:33:50;;;;;;;3.38;2.83;;;16.60;99.90;;;;;;6185482;23;20241;-74
2021/09/19 16:36:18;;;;;;;4.60;3.22;;;16.60;99.90;;;;;;6184269;23;20172;-74
2021/09/19 16:38:46;;;;;;;3.60;3.30;;;16.50;99.90;;;;;;6184732;23;20186;-73
2021/09/19 16:41:13;;;;;;;3.50;2.55;;;16.50;99.90;;;;;;6185313;23;20163;-72
2021/09/19 16:43:40;;;;;;;3.00;2.70;;;16.50;99.90;;;;;;6183707;23;20163;-73
2021/09/19 16:46:08;;;;;;;6.20;3.00;;;16.50;99.90;;;;;;6181239;23;20613;-69
2021/09/19 16:48:37;;;;;;;3.50;2.80;;;16.40;99.90;;;;;;6185687;23;20168;-72
2021/09/19 16:51:04;;;;;;;4.18;2.85;;;16.30;99.90;;;;;;6185147;23;20498;-74
2021/09/19 16:53:31;;;;;;;3.15;2.85;;;16.10;99.90;;;;;;6184799;23;20336;-71
2021/09/19 16:55:59;;;;;;;4.30;3.22;;;16.00;99.90;;;;;;6184346;23;20162;-72
2021/09/19 16:58:26;;;;;;;4.00;3.42;;;16.00;99.90;;;;;;6184811;23;20184;-72
2021/09/19 17:00:53;;;;;;;3.88;3.30;;;16.00;99.90;;;;;;6184159;23;20170;-73
2021/09/19 17:03:20;;;;;;;5.80;2.90;;;15.80;99.90;;;;;;6185054;23;20273;-72
2021/09/19 17:05:49;;;;;;;4.55;4.10;;;15.80;99.90;;;;;;6183621;23;20168;-74
2021/09/19 17:08:16;;;;;;;4.47;3.17;;;15.70;99.90;;;;;;6184779;23;20192;-75
2021/09/19 17:10:43;;;;;;;4.65;3.67;;;15.70;99.90;;;;;;6184641;23;20258;-73
2021/09/19 17:13:11;;;;;;;4.85;3.33;;;15.60;99.90;;;;;;6184300;23;20206;-74
2021/09/19 17:15:38;;;;;;;6.65;4.32;;;15.60;99.90;;;;;;6182842;23;20169;-72
2021/09/19 17:18:05;;;;;;;7.32;3.80;;;15.60;99.90;;;;;;6184277;23;20288;-78
2021/09/19 17:20:32;;;;;;;4.30;3.78;;;15.60;99.90;;;;;;6201381;23;20188;-80
2021/09/19 17:23:01;;;;;;;7.55;4.90;;;15.50;99.90;;;;;;6197110;23;20183;-80
2021/09/19 17:25:28;;;;;;;8.00;5.43;;;15.50;99.90;;;;;;6196104;23;20184;-81
2021/09/19 17:27:55;;;;;;;5.45;4.47;;;15.40;99.90;;;;;;6196550;23;20201;-80
2021/09/19 17:30:26;;;;;;;5.60;4.47;;;15.50;99.90;;;;;;6197151;23;20187;-81
2021/09/19 17:32:53;;;;;;;8.85;4.47;;;15.50;99.90;;;;;;6200891;23;20150;-77
2021/09/19 17:35:20;;;;;;;6.60;4.53;;;15.50;99.90;;;;;;6211483;23;20212;-77
2021/09/19 17:37:47;;;;;;;7.50;4.63;;;15.50;99.90;;;;;;6211175;23;20188;-76
2021/09/19 17:40:15;;;;;;;6.85;4.68;;;15.50;99.90;;;;;;6209102;23;20188;-77
2021/09/19 17:42:42;;;;;;;6.55;4.85;;;15.50;99.90;;;;;;6205135;23;20404;-81
2021/09/19 17:45:11;;;;;;;5.93;4.70;;;15.50;99.90;;;;;;6198823;23;20173;-79
2021/09/19 17:47:38;;;;;;;5.07;4.15;;;15.60;99.90;;;;;;6202015;23;20211;-80
2021/09/19 17:50:06;;;;;;;7.32;3.75;;;15.60;99.90;;;;;;6198688;23;20172;-83
2021/09/19 17:52:34;;;;;;;6.85;4.20;;;15.70;99.90;;;;;;6198916;23;20175;-80